Time;durP1;ratioP1;P1;durP2;ratioP2;P2;SDS_P1;SDS_P2;PMS_P1;PMS_P2;Temp;Humidity;BMP_temperature;BMP_pressure;BME280_temperature;BME280_humidity;BME280_pressure;Samples;Min_cycle;Max_cycle;Signal;HPM_P1;HPM_P2
2022/05/20 00:00:36;;;;;;;0.80;0.68;;;13.90;81.70;;;;;;5099902;28;20039;-76
2022/05/20 00:03:02;;;;;;;0.68;0.60;;;13.80;81.60;;;;;;5134019;28;20059;-76
2022/05/20 00:05:29;;;;;;;0.77;0.77;;;13.80;81.60;;;;;;5114617;28;20048;-76
2022/05/20 00:07:55;;;;;;;0.60;0.60;;;13.80;81.60;;;;;;5131820;28;20044;-76
2022/05/20 00:10:22;;;;;;;0.90;0.70;;;13.70;81.60;;;;;;5130422;28;20090;-76
2022/05/20 00:12:49;;;;;;;0.98;0.73;;;13.80;81.60;;;;;;5130756;28;20065;-76
2022/05/20 00:15:17;;;;;;;0.70;0.70;;;13.70;81.60;;;;;;5117163;28;20042;-77
2022/05/20 00:17:43;;;;;;;1.65;0.90;;;13.70;81.60;;;;;;5135340;28;20482;-77
2022/05/20 00:20:11;;;;;;;0.68;0.65;;;13.60;81.60;;;;;;5132073;28;20051;-77
2022/05/20 00:22:38;;;;;;;0.80;0.70;;;13.60;81.60;;;;;;5132830;28;20087;-77
2022/05/20 00:27:43;;;;;;;1.30;0.75;;;13.60;81.60;;;;;;5116013;28;20047;-77
2022/05/20 00:30:10;;;;;;;0.80;0.70;;;13.60;81.60;;;;;;5112489;28;20042;-77
2022/05/20 00:32:36;;;;;;;0.93;0.80;;;13.50;81.70;;;;;;5094531;28;20136;-77
2022/05/20 00:35:02;;;;;;;0.75;0.70;;;13.50;81.70;;;;;;5109431;28;20050;-77
2022/05/20 00:37:28;;;;;;;1.27;0.80;;;13.50;81.80;;;;;;5130342;28;20095;-77
2022/05/20 00:39:53;;;;;;;0.85;0.70;;;13.50;81.80;;;;;;5135586;28;20038;-77
2022/05/20 00:42:19;;;;;;;1.08;0.70;;;13.40;81.80;;;;;;5116111;28;20122;-77
2022/05/20 00:44:45;;;;;;;0.82;0.73;;;13.40;81.80;;;;;;5113686;28;20059;-77
2022/05/20 00:47:13;;;;;;;1.17;0.80;;;13.30;81.90;;;;;;5133204;28;20043;-77
2022/05/20 00:49:43;;;;;;;0.80;0.70;;;13.30;81.90;;;;;;5132995;28;20040;-77
2022/05/20 00:52:11;;;;;;;0.63;0.63;;;13.20;81.90;;;;;;5134322;28;20058;-76
2022/05/20 00:54:41;;;;;;;0.88;0.80;;;13.20;82.00;;;;;;5135059;28;20043;-77
2022/05/20 00:57:21;;;;;;;0.75;0.63;;;13.20;82.00;;;;;;5133589;28;20039;-76
2022/05/20 00:59:53;;;;;;;1.33;0.70;;;13.20;82.10;;;;;;5134394;28;20027;-76
2022/05/20 01:02:20;;;;;;;;;;;13.10;82.00;;;;;;5114675;28;20055;-76
2022/05/20 01:04:47;;;;;;;1.00;0.90;;;13.10;81.90;;;;;;5133711;28;19998;-76
2022/05/20 01:07:16;;;;;;;0.65;0.65;;;13.20;81.90;;;;;;5113535;28;20054;-76
2022/05/20 01:09:42;;;;;;;0.90;0.60;;;13.00;81.80;;;;;;5126810;28;20049;-76
2022/05/20 01:12:08;;;;;;;0.77;0.68;;;13.10;81.90;;;;;;5112775;28;20122;-76
2022/05/20 01:14:34;;;;;;;0.60;0.60;;;13.00;82.00;;;;;;5113955;28;20050;-77
2022/05/20 01:17:00;;;;;;;0.60;0.60;;;12.90;82.00;;;;;;5130174;28;20047;-77
2022/05/20 01:19:56;;;;;;;0.60;0.60;;;13.00;82.10;;;;;;5114866;28;20035;-77
2022/05/20 01:22:56;;;;;;;1.05;0.77;;;12.90;82.20;;;;;;5127942;28;20061;-76
2022/05/20 01:25:23;;;;;;;0.85;0.70;;;12.90;82.20;;;;;;5115779;28;20096;-76
2022/05/20 01:27:50;;;;;;;1.08;0.73;;;12.80;82.10;;;;;;5109419;28;20050;-76
2022/05/20 01:30:19;;;;;;;0.82;0.70;;;12.80;82.20;;;;;;5107391;28;20112;-76
2022/05/20 01:32:45;;;;;;;1.20;0.90;;;12.80;82.20;;;;;;5124932;28;20110;-76
2022/05/20 01:35:16;;;;;;;1.20;1.10;;;12.80;82.20;;;;;;5125867;28;20070;-76
2022/05/20 01:37:42;;;;;;;0.75;0.75;;;12.80;82.30;;;;;;5123529;28;20055;-76
2022/05/20 01:40:08;;;;;;;0.98;0.88;;;12.80;82.20;;;;;;5122192;28;20040;-77
2022/05/20 01:42:47;;;;;;;0.80;0.73;;;12.80;82.20;;;;;;5102784;28;20524;-77
2022/05/20 01:45:21;;;;;;;1.05;0.75;;;12.70;82.20;;;;;;5119594;28;20047;-77
2022/05/20 01:47:55;;;;;;;1.40;0.90;;;12.80;82.20;;;;;;5103616;28;20044;-76
2022/05/20 01:50:28;;;;;;;1.20;0.90;;;12.80;82.20;;;;;;5104127;28;20048;-77
2022/05/20 01:53:04;;;;;;;1.80;0.90;;;12.70;82.20;;;;;;5102573;28;20047;-77
2022/05/20 01:55:42;;;;;;;0.98;0.90;;;12.70;82.30;;;;;;5101883;28;20039;-77
2022/05/20 01:58:32;;;;;;;1.05;0.93;;;12.70;82.30;;;;;;5118718;28;20035;-77
2022/05/20 02:01:02;;;;;;;1.25;0.90;;;12.50;82.20;;;;;;5103210;28;20035;-77
2022/05/20 02:03:37;;;;;;;1.95;0.70;;;12.60;82.30;;;;;;5118777;28;20032;-77
2022/05/20 02:06:18;;;;;;;0.60;0.60;;;12.60;82.30;;;;;;5119810;28;20054;-78
2022/05/20 02:08:56;;;;;;;1.05;0.80;;;12.50;82.40;;;;;;5104722;28;20903;-77
2022/05/20 02:11:29;;;;;;;0.55;0.55;;;12.50;82.40;;;;;;5103144;28;20062;-77
2022/05/20 02:14:08;;;;;;;0.70;0.63;;;12.50;82.40;;;;;;5120535;28;20082;-78
2022/05/20 02:16:39;;;;;;;0.55;0.55;;;12.50;82.40;;;;;;5104939;28;20076;-78
2022/05/20 02:19:17;;;;;;;0.75;0.70;;;12.50;82.40;;;;;;5122769;28;20024;-77
2022/05/20 02:21:49;;;;;;;0.75;0.70;;;12.50;82.40;;;;;;5101780;28;20131;-77
2022/05/20 02:24:19;;;;;;;0.70;0.70;;;12.50;82.40;;;;;;5104922;28;20031;-78
2022/05/20 02:26:54;;;;;;;1.58;0.90;;;12.40;82.30;;;;;;5087586;28;20039;-77
2022/05/20 02:29:31;;;;;;;1.33;0.98;;;12.40;82.40;;;;;;5121277;28;20048;-77
2022/05/20 02:32:07;;;;;;;1.13;0.82;;;12.40;82.40;;;;;;5119209;28;20489;-77
2022/05/20 02:34:34;;;;;;;0.80;0.70;;;12.40;82.40;;;;;;5102671;28;20048;-77
2022/05/20 02:37:13;;;;;;;1.35;0.90;;;12.30;82.40;;;;;;5120686;28;20082;-77
2022/05/20 02:39:39;;;;;;;1.00;0.90;;;12.30;82.50;;;;;;5120478;28;20392;-77
2022/05/20 02:42:06;;;;;;;1.10;0.90;;;12.30;82.50;;;;;;5121334;28;20035;-77
2022/05/20 02:44:32;;;;;;;1.42;0.95;;;12.30;82.50;;;;;;5120218;28;20074;-78
2022/05/20 02:46:58;;;;;;;2.58;1.10;;;12.30;82.60;;;;;;5120246;28;20043;-77
2022/05/20 02:49:23;;;;;;;2.13;1.08;;;12.30;82.60;;;;;;5101032;28;20053;-77
2022/05/20 02:51:49;;;;;;;1.05;0.90;;;12.30;82.60;;;;;;5120337;28;20506;-77
2022/05/20 02:54:15;;;;;;;1.10;0.95;;;12.20;82.60;;;;;;5102986;28;20043;-77
2022/05/20 02:56:40;;;;;;;1.08;0.80;;;12.20;82.60;;;;;;5121105;28;20099;-78
2022/05/20 03:04:32;;;;;;;0.93;0.82;;;12.20;82.50;;;;;;5103204;28;20046;-77
2022/05/20 03:06:57;;;;;;;1.58;1.00;;;12.20;82.50;;;;;;5099793;28;20043;-77
2022/05/20 03:09:25;;;;;;;0.95;0.88;;;12.30;82.60;;;;;;5099780;28;20044;-78
2022/05/20 03:11:51;;;;;;;1.73;1.02;;;12.20;82.60;;;;;;5118064;28;20044;-78
2022/05/20 03:14:20;;;;;;;1.50;1.10;;;12.20;82.60;;;;;;5102064;28;20031;-77
2022/05/20 03:16:47;;;;;;;1.13;0.95;;;12.20;82.60;;;;;;5101587;28;20046;-78
2022/05/20 03:19:14;;;;;;;1.05;0.95;;;12.10;82.60;;;;;;5090614;28;20044;-77
2022/05/20 03:21:41;;;;;;;1.77;1.00;;;12.10;82.60;;;;;;5100973;28;20047;-78
2022/05/20 03:24:09;;;;;;;1.20;0.90;;;12.10;82.70;;;;;;5100458;28;20497;-78
2022/05/20 03:26:36;;;;;;;1.23;1.00;;;12.10;82.70;;;;;;5118741;28;20118;-78
2022/05/20 03:29:05;;;;;;;1.02;0.90;;;12.10;82.70;;;;;;5101158;28;20378;-77
2022/05/20 03:31:33;;;;;;;0.80;0.80;;;12.10;82.70;;;;;;5099174;28;20032;-77
2022/05/20 03:34:05;;;;;;;1.15;0.95;;;12.10;82.70;;;;;;5119092;28;20032;-77
2022/05/20 03:36:33;;;;;;;1.23;0.88;;;12.00;82.70;;;;;;5100976;28;20042;-77
2022/05/20 03:38:59;;;;;;;0.60;0.60;;;12.00;82.70;;;;;;5118388;28;20062;-77
2022/05/20 03:41:25;;;;;;;0.60;0.60;;;12.00;82.70;;;;;;5118492;28;20044;-77
2022/05/20 03:43:51;;;;;;;0.70;0.70;;;12.10;82.80;;;;;;5099541;28;20044;-77
2022/05/20 03:46:17;;;;;;;0.88;0.80;;;12.00;82.70;;;;;;5117010;28;20396;-78
2022/05/20 03:48:42;;;;;;;1.88;0.90;;;12.00;82.70;;;;;;5116905;28;20165;-77
2022/05/20 03:51:11;;;;;;;0.77;0.77;;;12.00;82.70;;;;;;5116615;28;20135;-77
2022/05/20 03:53:37;;;;;;;1.20;0.82;;;12.10;82.70;;;;;;5117120;28;20122;-77
2022/05/20 03:56:04;;;;;;;0.80;0.80;;;12.00;82.60;;;;;;5117187;28;20044;-77
2022/05/20 03:58:30;;;;;;;1.73;0.80;;;12.10;82.70;;;;;;5117127;28;20066;-77
2022/05/20 04:03:40;;;;;;;1.58;1.00;;;12.10;82.60;;;;;;5100669;28;20051;-77
2022/05/20 04:06:06;;;;;;;1.77;0.95;;;12.10;83.10;;;;;;5117885;28;20038;-77
2022/05/20 04:08:32;;;;;;;2.22;1.00;;;12.10;82.50;;;;;;5116426;28;20039;-77
2022/05/20 04:10:58;;;;;;;1.48;0.93;;;12.20;82.50;;;;;;5117219;28;20126;-77
2022/05/20 04:13:24;;;;;;;1.75;0.90;;;12.20;82.50;;;;;;5098457;28;20051;-78
2022/05/20 04:15:51;;;;;;;1.70;1.05;;;12.20;82.50;;;;;;5117084;28;20036;-78
2022/05/20 04:18:18;;;;;;;1.20;0.85;;;12.20;82.50;;;;;;5099635;28;20511;-77
2022/05/20 04:20:44;;;;;;;2.55;1.10;;;12.20;82.40;;;;;;5100064;28;20050;-77
2022/05/20 04:23:10;;;;;;;2.33;1.00;;;12.20;82.40;;;;;;5098855;28;20411;-77
2022/05/20 04:25:35;;;;;;;1.00;0.90;;;12.20;82.40;;;;;;5117000;28;20134;-78
2022/05/20 04:28:01;;;;;;;1.40;0.90;;;12.20;82.40;;;;;;5099140;28;20043;-78
2022/05/20 04:30:27;;;;;;;1.35;1.00;;;12.30;82.30;;;;;;5099361;28;20130;-78
2022/05/20 04:32:53;;;;;;;1.23;0.93;;;12.30;82.30;;;;;;5117474;28;20043;-77
2022/05/20 04:35:20;;;;;;;1.85;0.90;;;12.30;82.20;;;;;;5099377;28;20039;-78
2022/05/20 04:37:45;;;;;;;1.42;0.93;;;12.40;82.30;;;;;;5116023;28;20036;-78
2022/05/20 04:40:12;;;;;;;2.30;1.02;;;12.30;82.20;;;;;;5099749;28;20036;-78
2022/05/20 04:48:00;;;;;;;1.25;1.05;;;12.30;82.20;;;;;;5115922;28;20092;-77
2022/05/20 04:50:26;;;;;;;1.33;1.05;;;12.40;82.40;;;;;;5117010;28;20062;-78
2022/05/20 04:52:51;;;;;;;1.95;1.00;;;12.40;82.30;;;;;;5101810;28;20522;-78
2022/05/20 04:55:17;;;;;;;1.10;0.93;;;12.40;82.40;;;;;;5099843;28;20485;-77
2022/05/20 04:57:46;;;;;;;1.45;0.95;;;12.50;82.40;;;;;;5099227;28;20042;-77
2022/05/20 05:00:17;;;;;;;2.05;0.98;;;12.50;82.40;;;;;;5117341;28;20051;-79
2022/05/20 05:02:44;;;;;;;1.15;0.80;;;12.50;82.40;;;;;;5096552;28;20084;-78
2022/05/20 05:05:13;;;;;;;0.77;0.70;;;12.60;82.30;;;;;;5078556;28;20044;-78
2022/05/20 05:07:42;;;;;;;1.20;1.05;;;12.70;82.30;;;;;;5061882;28;20176;-78
2022/05/20 05:10:10;;;;;;;1.00;0.77;;;12.60;82.20;;;;;;5113385;28;20043;-77
2022/05/20 05:12:36;;;;;;;1.30;0.73;;;12.70;82.20;;;;;;5094902;28;20439;-78
2022/05/20 05:15:02;;;;;;;1.20;0.80;;;12.70;82.20;;;;;;5078216;28;20059;-78
2022/05/20 05:20:16;;;;;;;0.80;0.80;;;12.90;82.10;;;;;;5113125;28;20504;-78
2022/05/20 05:22:43;;;;;;;0.60;0.60;;;13.00;82.00;;;;;;5095360;28;20100;-77
2022/05/20 05:25:12;;;;;;;1.40;1.00;;;13.00;81.90;;;;;;5061284;28;20039;-78
2022/05/20 05:27:39;;;;;;;1.17;0.98;;;13.10;81.80;;;;;;5094853;28;20051;-78
2022/05/20 05:30:07;;;;;;;1.00;0.90;;;13.20;81.70;;;;;;5112964;28;20101;-78
2022/05/20 05:32:34;;;;;;;1.23;1.00;;;13.20;81.60;;;;;;5094486;28;20489;-78
2022/05/20 05:35:01;;;;;;;0.98;0.80;;;13.30;81.60;;;;;;5094620;28;20035;-77
2022/05/20 05:37:27;;;;;;;1.30;1.10;;;13.30;81.50;;;;;;5113165;28;20097;-77
2022/05/20 05:39:53;;;;;;;1.17;0.90;;;13.40;81.50;;;;;;5112881;28;20036;-78
2022/05/20 05:42:20;;;;;;;1.60;1.15;;;13.50;81.60;;;;;;5112815;28;20070;-78
2022/05/20 05:44:47;;;;;;;1.65;0.95;;;13.40;81.50;;;;;;5112872;28;20047;-78
2022/05/20 05:47:13;;;;;;;2.00;1.17;;;13.50;81.60;;;;;;5113115;28;20036;-77
2022/05/20 05:49:39;;;;;;;1.85;1.20;;;13.50;81.50;;;;;;5095008;28;20088;-78
2022/05/20 05:52:05;;;;;;;1.25;0.90;;;13.60;81.60;;;;;;5112357;28;20051;-78
2022/05/20 05:54:32;;;;;;;1.05;1.00;;;13.60;81.60;;;;;;5112803;28;20028;-78
2022/05/20 05:56:59;;;;;;;1.38;0.98;;;13.60;81.60;;;;;;5112893;28;20119;-77
2022/05/20 05:59:25;;;;;;;1.77;1.10;;;13.70;81.70;;;;;;5094251;28;20038;-79
2022/05/20 06:01:58;;;;;;;2.45;1.40;;;13.70;81.60;;;;;;5112516;28;20047;-77
2022/05/20 06:04:24;;;;;;;1.40;1.00;;;13.80;81.70;;;;;;5094320;28;20126;-77
2022/05/20 06:06:51;;;;;;;0.82;0.82;;;13.80;81.60;;;;;;5112406;28;20044;-77
2022/05/20 06:09:17;;;;;;;0.68;0.68;;;13.90;81.60;;;;;;5113943;28;20127;-78
2022/05/20 06:11:43;;;;;;;1.20;0.90;;;14.00;81.60;;;;;;5133101;28;20115;-78
2022/05/20 06:14:09;;;;;;;1.00;0.90;;;14.00;81.50;;;;;;5111050;28;20101;-77
2022/05/20 06:16:37;;;;;;;1.65;1.05;;;14.10;81.40;;;;;;5133464;28;20044;-75
2022/05/20 06:19:03;;;;;;;0.80;0.80;;;14.10;81.30;;;;;;5132085;28;20036;-77
2022/05/20 06:21:30;;;;;;;0.90;0.90;;;14.20;81.30;;;;;;5134410;28;20040;-76
2022/05/20 06:23:56;;;;;;;1.23;0.80;;;14.30;81.30;;;;;;5133766;28;20054;-77
2022/05/20 06:26:22;;;;;;;1.80;1.02;;;14.40;81.20;;;;;;5135833;28;20074;-77
2022/05/20 06:28:48;;;;;;;1.25;1.00;;;14.50;81.10;;;;;;5136019;28;20044;-77
2022/05/20 06:31:15;;;;;;;1.20;1.10;;;14.60;81.00;;;;;;5134776;28;20062;-76
2022/05/20 06:33:41;;;;;;;1.40;1.08;;;14.70;80.80;;;;;;5133030;28;20058;-77
2022/05/20 06:41:27;;;;;;;1.50;1.05;;;15.10;80.40;;;;;;5119373;28;20047;-76
2022/05/20 06:43:53;;;;;;;1.38;1.00;;;15.20;80.10;;;;;;5101139;28;20052;-76
2022/05/20 06:46:18;;;;;;;2.30;1.33;;;15.30;79.90;;;;;;5134906;28;20043;-76
2022/05/20 06:48:47;;;;;;;1.48;1.25;;;15.40;79.90;;;;;;5130489;28;20063;-76
2022/05/20 06:51:17;;;;;;;1.30;1.10;;;15.60;79.80;;;;;;5125662;28;20043;-77
2022/05/20 06:53:44;;;;;;;2.03;1.25;;;15.70;79.60;;;;;;5130392;28;20070;-77
2022/05/20 06:56:12;;;;;;;2.28;1.30;;;15.90;79.30;;;;;;5128146;28;20043;-76
2022/05/20 06:58:38;;;;;;;2.40;1.60;;;16.00;78.90;;;;;;5105443;28;20454;-77
2022/05/20 07:01:05;;;;;;;3.08;1.70;;;16.20;78.80;;;;;;5107097;28;20043;-76
2022/05/20 07:03:32;;;;;;;1.08;1.00;;;16.30;78.60;;;;;;5123449;28;20089;-77
2022/05/20 07:05:58;;;;;;;2.25;1.35;;;16.50;78.40;;;;;;5103959;28;20036;-77
2022/05/20 07:08:24;;;;;;;2.80;1.52;;;16.60;78.30;;;;;;5123725;28;20044;-76
2022/05/20 07:10:50;;;;;;;1.30;1.20;;;16.70;78.10;;;;;;5124754;28;20035;-77
2022/05/20 07:13:16;;;;;;;1.98;1.25;;;16.90;78.00;;;;;;5103951;28;20069;-77
2022/05/20 07:15:42;;;;;;;1.42;0.98;;;17.10;77.70;;;;;;5120807;28;20040;-76
2022/05/20 07:18:08;;;;;;;1.13;1.00;;;17.20;77.50;;;;;;5120981;28;20043;-76
2022/05/20 07:20:34;;;;;;;1.10;1.00;;;17.40;77.40;;;;;;5119445;28;20157;-75
2022/05/20 07:23:02;;;;;;;1.85;1.30;;;17.70;77.30;;;;;;5115742;28;20509;-76
2022/05/20 07:25:53;;;;;;;2.15;1.20;;;17.70;77.00;;;;;;5124788;28;20077;-77
2022/05/20 07:28:32;;;;;;;;;;;17.90;76.60;;;;;;5073461;28;20170;-77
2022/05/20 07:31:09;;;;;;;1.77;1.23;;;18.10;76.50;;;;;;5073290;28;20346;-77
2022/05/20 07:33:46;;;;;;;1.98;1.20;;;18.20;76.40;;;;;;5044010;28;20449;-76
2022/05/20 07:36:14;;;;;;;1.80;1.20;;;18.30;76.20;;;;;;5059316;28;20058;-74
2022/05/20 07:38:40;;;;;;;1.40;1.10;;;18.50;76.00;;;;;;5024749;28;20044;-75
2022/05/20 07:41:06;;;;;;;1.98;1.10;;;18.60;75.90;;;;;;5025451;28;20456;-75
2022/05/20 07:43:32;;;;;;;1.80;1.00;;;18.70;75.90;;;;;;5025369;28;20041;-75
2022/05/20 07:45:58;;;;;;;1.00;0.75;;;18.70;75.70;;;;;;5007845;28;20042;-74
2022/05/20 07:48:25;;;;;;;1.60;1.30;;;18.80;76.50;;;;;;5013748;28;20073;-74
2022/05/20 07:50:56;;;;;;;1.65;1.10;;;18.90;75.90;;;;;;5012795;28;20046;-74
2022/05/20 07:53:33;;;;;;;1.83;1.25;;;19.10;75.60;;;;;;5012874;28;20050;-75
2022/05/20 07:56:06;;;;;;;1.00;0.90;;;19.30;75.30;;;;;;5012085;28;20092;-75
2022/05/20 07:58:36;;;;;;;1.95;1.35;;;19.40;74.80;;;;;;5003277;28;20067;-76
2022/05/20 08:01:04;;;;;;;2.28;1.40;;;19.50;74.50;;;;;;5051794;28;20430;-74
2022/05/20 08:06:21;;;;;;;1.00;0.93;;;19.50;74.90;;;;;;5054500;28;20080;-77
2022/05/20 08:08:47;;;;;;;1.08;0.90;;;19.70;74.90;;;;;;5067299;28;20283;-75
2022/05/20 08:11:13;;;;;;;3.35;1.10;;;19.80;74.60;;;;;;5124406;28;20048;-75
2022/05/20 08:13:39;;;;;;;1.58;1.10;;;19.90;74.40;;;;;;5132254;28;20112;-77
2022/05/20 08:16:05;;;;;;;2.63;1.35;;;20.00;74.30;;;;;;5113105;28;20040;-77
2022/05/20 08:18:32;;;;;;;1.75;1.35;;;19.90;74.10;;;;;;5125596;28;20055;-77
2022/05/20 08:20:59;;;;;;;2.20;1.00;;;20.10;74.20;;;;;;5094548;28;20047;-76
2022/05/20 08:23:25;;;;;;;2.90;1.63;;;20.10;74.10;;;;;;5132326;28;20029;-76
2022/05/20 08:25:51;;;;;;;1.45;1.10;;;20.10;74.10;;;;;;5136849;28;20047;-77
2022/05/20 08:28:19;;;;;;;2.85;1.48;;;20.20;74.10;;;;;;5134740;28;20043;-76
2022/05/20 08:30:44;;;;;;;1.75;1.13;;;20.30;74.60;;;;;;5094613;28;20047;-76
2022/05/20 08:33:11;;;;;;;3.00;1.40;;;20.40;73.60;;;;;;5127520;28;20035;-76
2022/05/20 08:35:36;;;;;;;2.15;1.20;;;20.50;73.40;;;;;;5131817;28;20537;-76
2022/05/20 08:38:04;;;;;;;2.20;1.27;;;20.60;73.30;;;;;;5135250;28;20055;-75
2022/05/20 08:40:42;;;;;;;1.98;1.15;;;20.80;73.10;;;;;;5099934;28;20047;-76
2022/05/20 08:43:09;;;;;;;1.73;1.30;;;20.70;73.60;;;;;;5109564;28;20071;-75
2022/05/20 08:45:35;;;;;;;3.05;1.52;;;20.80;73.60;;;;;;5129189;28;20504;-74
2022/05/20 08:48:05;;;;;;;2.08;1.15;;;20.80;72.90;;;;;;5116128;28;20112;-76
2022/05/20 08:50:37;;;;;;;1.67;1.00;;;20.90;72.90;;;;;;5109769;28;20489;-76
2022/05/20 08:53:06;;;;;;;1.05;0.93;;;20.90;72.90;;;;;;5113834;28;20055;-75
2022/05/20 08:55:32;;;;;;;1.52;1.30;;;21.00;72.80;;;;;;5117949;28;20054;-74
2022/05/20 08:58:01;;;;;;;1.83;1.30;;;21.10;72.50;;;;;;5122283;28;20099;-77
2022/05/20 09:00:28;;;;;;;1.27;1.10;;;21.20;72.30;;;;;;5105335;28;20032;-77
2022/05/20 09:02:54;;;;;;;1.08;0.90;;;21.30;72.20;;;;;;5128977;28;20074;-75
2022/05/20 09:05:25;;;;;;;1.25;0.93;;;21.40;72.00;;;;;;5130077;28;20040;-76
2022/05/20 09:07:58;;;;;;;1.92;1.30;;;21.40;72.00;;;;;;5131463;28;20059;-76
2022/05/20 09:10:37;;;;;;;1.40;1.10;;;21.50;71.80;;;;;;5129526;28;20051;-76
2022/05/20 09:16:11;;;;;;;1.08;0.98;;;21.50;71.50;;;;;;5085906;28;20126;-76
2022/05/20 09:19:05;;;;;;;1.65;1.10;;;21.60;71.50;;;;;;5088490;28;20094;-77
2022/05/20 09:21:38;;;;;;;0.88;0.88;;;21.50;71.40;;;;;;5042435;28;20056;-76
2022/05/20 09:24:20;;;;;;;1.13;0.80;;;21.30;71.80;;;;;;5039325;28;20097;-75
2022/05/20 09:27:03;;;;;;;1.30;0.88;;;21.30;71.80;;;;;;5042461;28;20125;-75
2022/05/20 09:29:35;;;;;;;1.88;0.95;;;21.40;71.80;;;;;;5043364;28;20076;-75
2022/05/20 09:32:04;;;;;;;0.70;0.70;;;21.50;71.80;;;;;;5040069;28;20050;-75
2022/05/20 09:34:35;;;;;;;1.30;0.80;;;21.50;71.50;;;;;;5026247;28;20045;-75
2022/05/20 09:37:05;;;;;;;;;;;21.70;71.30;;;;;;5045862;28;20044;-75
2022/05/20 09:39:35;;;;;;;1.02;0.70;;;21.70;71.20;;;;;;5043669;28;20490;-75
2022/05/20 09:42:15;;;;;;;1.15;1.00;;;21.70;71.70;;;;;;5039969;28;20057;-75
2022/05/20 09:44:45;;;;;;;0.80;0.80;;;21.70;70.80;;;;;;5024666;28;20045;-75
2022/05/20 09:47:25;;;;;;;1.05;0.90;;;21.80;70.90;;;;;;5108561;28;20069;-75
2022/05/20 09:49:57;;;;;;;1.10;0.90;;;21.80;70.60;;;;;;5111479;28;20477;-75
2022/05/20 09:52:49;;;;;;;1.00;0.80;;;21.90;70.60;;;;;;5120910;28;20044;-74
2022/05/20 09:55:29;;;;;;;2.03;0.85;;;22.00;70.50;;;;;;5098987;28;20036;-75
2022/05/20 09:57:57;;;;;;;1.00;0.77;;;22.00;70.30;;;;;;5114327;28;20042;-75
2022/05/20 10:00:27;;;;;;;0.75;0.70;;;22.10;70.30;;;;;;5125567;28;20099;-75
2022/05/20 10:03:12;;;;;;;1.10;0.60;;;22.10;70.10;;;;;;5119620;28;20051;-76
2022/05/20 10:05:55;;;;;;;1.10;0.88;;;22.30;70.00;;;;;;5115033;28;20032;-76
2022/05/20 10:08:32;;;;;;;1.55;1.10;;;22.40;69.70;;;;;;5131688;28;20047;-76
2022/05/20 10:11:28;;;;;;;1.00;0.90;;;22.50;69.30;;;;;;5131202;28;20023;-76
2022/05/20 10:14:16;;;;;;;1.45;0.70;;;22.60;69.00;;;;;;5132095;28;20051;-76
2022/05/20 10:16:51;;;;;;;0.65;0.60;;;22.80;68.70;;;;;;5112592;28;20048;-76
2022/05/20 10:19:48;;;;;;;1.25;0.80;;;22.80;68.50;;;;;;5130129;28;20084;-75
2022/05/20 10:22:39;;;;;;;1.15;1.02;;;22.80;68.40;;;;;;5126145;28;20050;-74
2022/05/20 10:25:30;;;;;;;1.20;0.93;;;22.90;68.50;;;;;;5111399;28;20036;-75
2022/05/20 10:28:09;;;;;;;;;;;22.80;68.60;;;;;;5126287;28;20036;-74
2022/05/20 10:33:28;;;;;;;1.20;0.80;;;22.60;69.00;;;;;;5126356;28;20098;-75
2022/05/20 10:36:24;;;;;;;1.23;0.70;;;22.60;69.20;;;;;;5111057;28;20031;-75
2022/05/20 10:39:10;;;;;;;0.50;0.50;;;22.70;68.80;;;;;;5114165;28;20047;-75
2022/05/20 10:42:05;;;;;;;1.52;0.73;;;22.90;69.10;;;;;;5128253;28;20051;-75
2022/05/20 10:48:35;;;;;;;2.78;0.90;;;23.20;67.40;;;;;;5115386;28;20085;-75
2022/05/20 10:51:29;;;;;;;1.30;0.82;;;23.30;67.30;;;;;;5107098;28;20108;-74
2022/05/20 10:54:27;;;;;;;0.85;0.68;;;23.50;67.00;;;;;;5097134;28;20047;-75
2022/05/20 10:57:20;;;;;;;1.02;0.80;;;23.60;66.80;;;;;;5116808;28;20104;-76
2022/05/20 10:59:59;;;;;;;0.50;0.50;;;23.70;66.50;;;;;;5104166;28;20036;-75
2022/05/20 11:03:01;;;;;;;1.00;0.80;;;23.70;66.30;;;;;;5129471;28;20048;-76
2022/05/20 11:06:01;;;;;;;1.25;0.77;;;23.80;66.20;;;;;;5089074;28;20035;-75
2022/05/20 11:08:49;;;;;;;0.77;0.70;;;23.50;66.20;;;;;;5120058;28;20039;-75
2022/05/20 11:11:34;;;;;;;1.00;0.90;;;23.50;66.30;;;;;;5101561;28;20051;-74
2022/05/20 11:14:22;;;;;;;0.88;0.68;;;23.50;66.40;;;;;;5119704;28;20039;-75
2022/05/20 11:17:15;;;;;;;0.73;0.73;;;23.40;66.40;;;;;;5114950;28;20040;-75
2022/05/20 11:19:58;;;;;;;0.57;0.57;;;23.40;66.50;;;;;;5121310;28;20039;-75
2022/05/20 11:22:45;;;;;;;0.52;0.52;;;23.60;66.40;;;;;;5124087;28;20039;-76
2022/05/20 11:25:21;;;;;;;0.70;0.70;;;23.50;66.10;;;;;;5104334;28;20413;-76
2022/05/20 11:28:15;;;;;;;1.38;0.68;;;23.60;66.00;;;;;;5127924;28;20061;-75
2022/05/20 11:31:15;;;;;;;1.00;0.90;;;23.50;65.90;;;;;;5128412;28;20044;-75
2022/05/20 11:34:09;;;;;;;2.05;0.80;;;23.30;65.80;;;;;;5105911;28;20040;-76
2022/05/20 11:36:56;;;;;;;1.38;0.80;;;23.30;66.10;;;;;;5114858;28;20032;-75
2022/05/20 11:39:56;;;;;;;0.95;0.75;;;23.30;66.10;;;;;;5116128;28;20039;-76
2022/05/20 11:42:48;;;;;;;1.27;0.90;;;23.40;66.00;;;;;;5117031;28;20031;-78
2022/05/20 11:45:38;;;;;;;1.33;1.08;;;23.40;66.00;;;;;;5117076;28;20054;-77
2022/05/20 11:48:39;;;;;;;1.90;1.00;;;23.50;65.80;;;;;;5123747;28;20063;-77
2022/05/20 11:51:42;;;;;;;0.77;0.68;;;23.50;65.70;;;;;;5121769;28;20043;-77
2022/05/20 11:54:15;;;;;;;1.15;0.80;;;23.50;65.80;;;;;;5092282;28;20052;-75
2022/05/20 11:57:35;;;;;;;1.08;0.95;;;23.40;65.90;;;;;;5089893;28;20548;-77
2022/05/20 12:00:11;;;;;;;1.58;1.10;;;23.40;66.10;;;;;;5024879;28;20502;-75
2022/05/20 12:02:42;;;;;;;4.00;1.70;;;23.30;66.40;;;;;;5026553;28;20041;-76
2022/05/20 12:05:12;;;;;;;2.03;1.30;;;23.10;66.50;;;;;;5046138;28;20037;-75
2022/05/20 12:07:38;;;;;;;1.52;1.05;;;23.00;66.70;;;;;;5031641;28;20063;-76
2022/05/20 12:10:38;;;;;;;1.85;1.27;;;23.00;67.00;;;;;;5041247;28;20038;-77
2022/05/20 12:13:21;;;;;;;1.02;0.93;;;23.00;66.90;;;;;;5031910;28;20107;-76
2022/05/20 12:16:14;;;;;;;3.50;1.50;;;22.90;67.00;;;;;;5023467;28;20124;-76
2022/05/20 12:24:47;;;;;;;1.30;1.00;;;22.60;67.40;;;;;;5061122;28;20059;-75
2022/05/20 12:27:39;;;;;;;1.65;1.00;;;22.50;67.70;;;;;;5065766;28;20048;-77
2022/05/20 12:30:27;;;;;;;0.98;0.93;;;22.40;67.90;;;;;;5053563;28;20041;-78
2022/05/20 12:32:54;;;;;;;1.40;0.90;;;22.20;68.00;;;;;;5054944;28;20594;-78
2022/05/20 12:35:30;;;;;;;1.95;1.30;;;22.20;68.30;;;;;;5052656;28;20040;-78
2022/05/20 12:38:15;;;;;;;1.75;1.10;;;22.20;68.40;;;;;;5094959;28;20051;-78
2022/05/20 12:40:51;;;;;;;1.65;1.17;;;22.10;68.60;;;;;;5114495;28;20485;-77
2022/05/20 12:43:17;;;;;;;1.48;1.17;;;21.90;68.80;;;;;;5095340;28;20062;-78
2022/05/20 12:45:53;;;;;;;1.42;1.05;;;21.90;69.10;;;;;;5114332;28;20044;-77
2022/05/20 12:48:25;;;;;;;1.63;1.17;;;21.80;69.30;;;;;;5080742;28;20404;-77
2022/05/20 12:51:01;;;;;;;1.38;1.10;;;21.60;69.70;;;;;;5079198;28;20043;-78
2022/05/20 12:53:30;;;;;;;1.77;1.10;;;21.40;70.10;;;;;;5112378;28;20044;-80
2022/05/20 12:55:57;;;;;;;3.40;2.10;;;21.30;70.50;;;;;;5113803;28;20089;-82
2022/05/20 12:58:34;;;;;;;1.60;1.40;;;21.10;70.90;;;;;;5076033;28;20036;-82
2022/05/20 13:01:50;;;;;;;1.90;1.40;;;21.00;71.40;;;;;;5114658;28;20043;-84
2022/05/20 13:04:19;;;;;;;0.75;0.75;;;20.80;71.90;;;;;;5113712;28;20038;-84
2022/05/20 13:06:47;;;;;;;1.92;1.50;;;20.70;72.20;;;;;;5095218;28;20052;-84
2022/05/20 13:09:21;;;;;;;3.08;1.20;;;20.60;72.70;;;;;;5113584;28;20501;-80
2022/05/20 13:11:50;;;;;;;2.78;1.90;;;20.40;73.10;;;;;;5113739;28;20501;-78
2022/05/20 13:14:17;;;;;;;3.15;1.63;;;20.30;73.30;;;;;;5113036;28;20400;-78
2022/05/20 13:16:58;;;;;;;3.10;1.38;;;20.20;73.50;;;;;;5113287;28;20046;-78
2022/05/20 13:19:31;;;;;;;2.78;1.63;;;20.20;73.80;;;;;;5093728;28;20046;-78
2022/05/20 13:22:02;;;;;;;1.67;1.20;;;20.10;74.00;;;;;;5095940;28;20095;-79
2022/05/20 13:24:33;;;;;;;2.90;1.90;;;20.10;74.20;;;;;;5113248;28;20059;-78
2022/05/20 13:27:10;;;;;;;1.92;1.40;;;20.10;74.30;;;;;;5112955;28;20043;-79
2022/05/20 13:29:37;;;;;;;2.35;1.48;;;20.20;74.20;;;;;;5095699;28;20043;-78
2022/05/20 13:32:14;;;;;;;3.13;1.80;;;20.20;74.00;;;;;;5094849;28;20128;-79
2022/05/20 13:34:45;;;;;;;2.65;1.65;;;20.30;73.90;;;;;;5113281;28;20066;-80
2022/05/20 13:37:12;;;;;;;;;;;20.40;73.90;;;;;;5050976;28;20037;-78
2022/05/20 13:39:44;;;;;;;1.67;1.20;;;20.30;73.60;;;;;;5033755;28;19935;-80
2022/05/20 13:42:16;;;;;;;2.45;1.70;;;20.40;73.70;;;;;;5018037;28;20492;-77
2022/05/20 13:58:52;;;;;;;2.65;1.60;;;20.10;74.30;;;;;;4951217;28;20109;-81
2022/05/20 14:01:20;;;;;;;1.92;1.33;;;20.00;74.80;;;;;;4923295;29;20063;-79
2022/05/20 14:03:48;;;;;;;1.42;1.20;;;20.00;75.00;;;;;;4936673;29;20090;-78
2022/05/20 14:06:17;;;;;;;2.47;1.38;;;20.00;75.10;;;;;;4959429;29;20043;-79
2022/05/20 14:08:52;;;;;;;1.95;1.50;;;19.90;75.20;;;;;;4951177;28;20413;-79
2022/05/20 14:11:28;;;;;;;1.70;1.40;;;19.90;75.30;;;;;;4949764;28;20052;-80